Timeline UpdatesTrip UpdatesNews PostsPvt PostsTravel TipsAdmin PostsConv PostsFollowed PostsChat RequestsBlog PostsPNR Posts

Disclaimer
Search
 
 
Mon Sep 1, 2014 13:11:15 ISTHomeTrainsΣChainsAtlasPNRForumGalleryNewsFAQTripsMembersLoginFeedback
No Recent News for this Train
Other Trains in the News **new
Latest...
⇐ Return Journey: Train# 59342

59341/Nagda Bina Passenger (UnReserved)

OLD Time-Table. New TT will soon be available.
Sep 16 2013 (8:00PM)
Change Departure Station:
Change Arrival Station:
Post a Train Travel TipPost a Train Travel Tip **new
Post a Comment/Question/Picture/VideoPost a Comment/Question/Picture/Video
Pantry/Catering
✕ NO Pantry Car
✕ NO Catering
RSA - Rake Sharing
59307/59354/59353/59318/59346/59345/59341/59342/59317/59306; Entry# 518023
Rake/Coach Composition
Loco
News    PNR    Forum    Time-Table    Availability    Fare Chart    Map    Arr/Dep History    Trips    Gallery    ΣChains    X/O    Timeline    
Travel Time: 2h 44m    9 halts    Distance: 87 km    Avg Speed: 31 km/hr
Type: Passenger
Zone: WR/Western
Departs @ 11:35 (Avg 9m late)
Platform# ???
SMTWTFS
Nagda Junction/NAD 
Arrives @ 14:19 (Avg 16m late)
Platform# ???
SMTWTFS
Tarana Road/TAN 

9 halts. 12 intermediate Stations between Nagda Junction and Tarana Road

Show ALL intermediate Stations  Show Old Time-Table

#CodeStation NameX/OArrivesAvgDepartsAvgHaltPFDay#KmSpeedElevZoneAddress
1NAD»Nagda Junction (4)»  -11:35+9--10.043468mWRNagda, Madhya Pradesh
2PPGPiploda Bagla  11:51+811:52+81m--111.552475mWRPiploda Sagotimata, Madhya Pradesh
3UNLUnhel  12:00+812:01+81m--118.558484mWRUjjain, Madhya Pradesh
4PSOPalsora MakrawaX  12:10+712:11+71m--127.252499mWRUjjain, Madhya Pradesh
5ASLAslaoda  12:21+1012:22+101m--135.946489mWRUjjain, Madhya Pradesh
6NKINaikheriX  12:33+812:34+81m--144.219504mWRUjjain, Madhya Pradesh
7UJNUjjain Junction (8)X  13:10+113:40+1130m--155.645492mWRUjjain 456001, Madhya Pradesh
8PLWPingleshwar  13:52+1813:53+181m--164.649509mWRMaksi, Madhya Pradesh
9TJPTajpur (2)  14:01+1814:02+181m--171.147528mWRMaksi, Madhya Pradesh
10SVTShivpura  14:10-14:11-1m--177.373499mWRMaksi, Madhya Pradesh
11TAN•Tarana Road•XO  14:19+1614:20+241m--187.111498mWRMaksi, Madhya Pradesh
12MKCMaksi Junction (3)  15:13-215:15+02m--196.768513mWRMakshi, Madhya Pradesh
13SYOSiroliya  15:24-15:25-1m--1106.933462mWCRShajapur, Madhya Pradesh
14CAZChauhani  15:34-15:35-1m--1111.963478mWCRShajapur, Madhya Pradesh
15SFYShajapurX  15:47+615:49+82m--1124.461450mWCRShajapur, Madhya Pradesh
16SFWSarangpur  16:15+716:17+72m--1151.049422mWCRSarangpur, Madhya Pradesh
17PQUParhana Mau (1)X  16:29+716:30+151m11160.840440mWCRNational Highway 3, Madhya Pradesh
18UDKUdyan Kheri (1)  16:44-16:45-1m11170.168435mWCRUdankheri, Madhya Pradesh
19PFRPachor Road  16:57+1216:58+201m--1183.767419mWCRPachore, Madhya Pradesh
20BRRGBiyavra Rajgarh  17:24+2017:25+201m--1212.966423mWCRBiaora, Madhya Pradesh
21SFZSinduriya Kachari (2)  17:34+2417:35+251m21222.965428mWCRGuna, Madhya Pradesh
22CBKChachaura Binaganj (1)  17:54+2517:55+261m11243.362435mWCRGuna, Madhya Pradesh
23KHRJKumbhraj (1)  18:17+2018:18+211m11266.081401mWCRManpura, Madhya Pradesh
24RGGRadogarh (1)  18:27-18:28-1m11278.138417mWCRVijaypur, Madhya Pradesh
25VJPVijay Pur  18:39+2318:40+241m--1285.116420mWCRVijaipur, Madhya Pradesh
26RTARuthiyai Junction (2)  19:00+1719:05+225m--1290.363414mWCRRuthiyai, Madhya Pradesh
27MUGAMahugara  19:18+2419:20+302m--1303.930501mWCRRuthiyai, Madhya Pradesh
28GUNAGuna Junction (3)  19:35+1519:45+1710m21311.255477mWCRJn Point Indore/Gwalior/Bina/Kota, Madhya Pradesh
29MABNMaban  19:52+3719:53+381m--1317.653501mWCRState Highway 23, Madhya Pradesh
30PGAPagara  20:01+3820:03+402m--1324.764494mWCRGuna, Madhya Pradesh
31PIGTPilighat  20:09+4220:10+431m--1331.139471mWCRGUNA Rd, Madhya Pradesh
32SHDRShadhoragaonX  20:24+3920:25+391m--1340.161504mWCRGuna, Madhya Pradesh
33RIKARatikheda  20:33+4020:35+432m--1348.254526mWCRGuna, Madhya Pradesh
34ASKNAshok Nagar (2)  20:43+2320:45+242m--1355.491502mWCRAshoknagar, Madhya Pradesh
35HPKAHinotia Pipalkhera  20:51+3920:52+401m--1364.536460mWCRAshoknagar, Madhya Pradesh
36ORROrrX  20:58+4021:00+412m--1368.159450mWCRAshoknagar, Madhya Pradesh
37PIAPipraigaon (3)  21:14+4321:16+432m21381.882451mWCRAshoknagar, Madhya Pradesh
38GVBGuneru Bamori (2)  21:24+4721:26+462m--1392.763427mWCRAshoknagar, Madhya Pradesh
39MNVMungaoli (2)  21:34+5421:36+562m--1401.160403mWCRAshoknagar, Madhya Pradesh
40KXBKanjiya  21:44+5221:46+522m--1409.1123390mWCRMungaoli, Madhya Pradesh
41SRKISemarkheriX  21:50+5021:52+502m--1417.351412mWCRBina, Madhya Pradesh
42MDVKMahadeokhedi  21:58+5422:00+542m--1422.45423mWCRBina, Madhya Pradesh
43BINABina Junction (4)  23:25+1-51430.1-414mWCRJn Pt - KATNI/GUNA/ BPL/JHS, Madhya Pradesh
Scroll to Top
Scroll to Bottom